Friday, April 18, 2014, 9:06 AM EDT
Back to Local

KLEB, Lebanon Municipal Airport

Location: Lebanon, NH, United States Lat: 43.633
Local Time: 9:06 AM EDT (13:06 GMT) Lon: -72.3
Time Zone: US/Eastern Elev: 597 ft

Show me the last for .
Show Coded

Time T Td Feel RH Dir Speed Gust Alt SLP Vis Weather Sky Remarks
2014-04-18 08:53 34 19 30 53 270° 5 - 30.53 30.55 10 CLR None
2014-04-18 07:53 28 21 23 74 160° 5 - 30.54 30.56 10 CLR 6-hr Min Temp (8am): 21.0°F
6-hr Max Temp (8am): 28.0°F
2014-04-18 06:53 24 18 - 77 - Calm - 30.53 30.55 10 CLR None
2014-04-18 05:53 21 16 - 80 - Calm - 30.55 30.57 10 CLR Pressure falling rapidly
2014-04-18 04:53 23 17 - 77 - Calm - 30.58 30.60 10 CLR None
2014-04-18 03:53 23 17 - 77 - Calm - 30.60 30.63 10 CLR None
2014-04-18 02:53 24 17 - 74 - Calm - 30.61 30.63 10 CLR None
2014-04-18 01:53 25 19 - 77 - Calm - 30.62 30.64 10 CLR 6-hr Min Temp (2am): 24.1°F
6-hr Max Temp (2am): 41.0°F
2014-04-18 00:53 26 19 - 74 - Calm - 30.63 30.65 10 CLR 24-hr Min Temp (1am): 19.0°F
24-hr Max Temp (1am): 48.0°F
2014-04-17 23:53 29 18 25 63 90° 3 - 30.64 30.67 10 CLR None
2014-04-17 22:53 32 16 29 51 130° 3 - 30.65 30.68 10 CLR None
2014-04-17 21:53 35 17 29 47 170° 7 - 30.66 30.68 10 CLR None
2014-04-17 20:53 37 16 26 41 160° 14 22 30.66 30.68 10 CLR None
2014-04-17 19:53 41 15 36 34 140° 8 - 30.65 30.67 10 CLR 6-hr Min Temp (8pm): 41.0°F
6-hr Max Temp (8pm): 48.0°F
2014-04-17 18:53 45 12 41 25 130° 7 - 30.64 30.67 10 CLR None
2014-04-17 17:53 47 13 42 24 150° 10 - 30.65 30.67 10 CLR None
2014-04-17 16:53 47 11 44 22 150° 7 - 30.66 30.68 10 CLR None
2014-04-17 15:53 47 13 44 24 150° 7 - 30.67 30.69 10 CLR None
2014-04-17 14:53 44 11 41 25 Variable 6 - 30.69 30.71 10 CLR None
2014-04-17 13:53 43 13 39 28 Variable 7 - 30.72 30.74 10 CLR 6-hr Min Temp (2pm): 25.0°F
6-hr Max Temp (2pm): 43.0°F
2014-04-17 12:53 40 13 33 32 150° 10 - 30.74 30.76 10 CLR None
2014-04-17 11:53 37 12 33 35 190° 5 - 30.76 30.79 10 CLR None
2014-04-17 10:53 35 13 29 39 Variable 7 - 30.79 30.82 10 CLR None
2014-04-17 09:53 30 15 26 53 Variable 3 - 30.79 30.82 10 CLR None

Support USWX by starting your Amazon purchase here.